createdAt,value
2018-09-24T00:01:05.165Z,14.53
2018-09-24T00:03:33.590Z,13.93
2018-09-24T00:06:02.054Z,14.63
2018-09-24T00:08:31.453Z,15.00
2018-09-24T00:10:59.909Z,15.70
2018-09-24T00:13:28.355Z,16.23
2018-09-24T00:15:56.797Z,16.17
2018-09-24T00:18:25.264Z,17.60
2018-09-24T00:20:53.785Z,17.10
2018-09-24T00:23:22.326Z,18.87
2018-09-24T00:25:50.911Z,17.23
2018-09-24T00:28:19.346Z,17.60
2018-09-24T00:30:47.792Z,17.90
2018-09-24T00:33:16.228Z,19.20
2018-09-24T00:35:44.885Z,18.87
2018-09-24T00:38:13.433Z,21.27
2018-09-24T00:40:41.931Z,19.67
2018-09-24T00:43:10.402Z,20.80
2018-09-24T00:45:38.859Z,20.57
2018-09-24T00:48:07.348Z,21.87
2018-09-24T00:50:36.746Z,21.70
2018-09-24T00:53:05.224Z,22.00
2018-09-24T00:55:33.665Z,21.50
2018-09-24T00:58:02.154Z,23.50
2018-09-24T01:00:30.621Z,22.90
2018-09-24T01:02:59.085Z,24.20
2018-09-24T01:05:27.523Z,22.77
2018-09-24T01:07:55.977Z,22.13
2018-09-24T01:10:24.444Z,23.80
2018-09-24T01:12:52.877Z,24.23
2018-09-24T01:15:21.330Z,23.43
2018-09-24T01:17:49.780Z,21.87
2018-09-24T01:20:18.250Z,24.00
2018-09-24T01:22:46.726Z,22.27
2018-09-24T01:25:15.190Z,22.83
2018-09-24T01:27:43.652Z,23.10
2018-09-24T01:30:12.107Z,22.90
2018-09-24T01:32:40.556Z,22.83
2018-09-24T01:35:09.018Z,21.60
2018-09-24T01:37:37.498Z,21.73
2018-09-24T01:40:06.065Z,22.30
2018-09-24T01:42:34.526Z,20.83
2018-09-24T01:45:02.990Z,20.27
2018-09-24T01:47:31.460Z,19.90
2018-09-24T01:49:59.922Z,20.40
2018-09-24T01:52:28.459Z,21.97
2018-09-24T01:54:56.967Z,19.63
2018-09-24T01:57:25.437Z,20.50
2018-09-24T01:59:55.481Z,18.20
2018-09-24T02:02:23.968Z,19.57
2018-09-24T02:04:52.403Z,17.07
2018-09-24T02:07:21.242Z,18.40
2018-09-24T02:09:49.775Z,18.10
2018-09-24T02:12:18.253Z,17.63
2018-09-24T02:14:46.733Z,18.13
2018-09-24T02:17:16.273Z,16.53
2018-09-24T02:19:45.725Z,15.80
2018-09-24T02:22:14.409Z,17.50
2018-09-24T02:24:42.870Z,15.43
2018-09-24T02:27:11.794Z,13.73
2018-09-24T02:29:40.544Z,14.30
2018-09-24T02:32:08.977Z,15.53
2018-09-24T02:34:37.528Z,15.27
2018-09-24T02:37:06.009Z,15.77
2018-09-24T02:39:34.513Z,13.93
2018-09-24T02:42:02.965Z,14.07
2018-09-24T02:44:31.398Z,13.57
2018-09-24T02:46:59.880Z,13.90
2018-09-24T02:49:28.374Z,14.07
2018-09-24T02:52:01.906Z,12.67
2018-09-24T02:54:31.160Z,11.90
2018-09-24T02:56:59.617Z,12.97
2018-09-24T02:59:28.085Z,11.97
2018-09-24T03:01:56.624Z,10.80
2018-09-24T03:04:25.200Z,11.63
2018-09-24T03:06:53.678Z,11.93
2018-09-24T03:09:22.121Z,12.43
2018-09-24T03:11:50.591Z,10.77
2018-09-24T03:14:24.821Z,10.77
2018-09-24T03:16:53.750Z,11.20
2018-09-24T03:19:22.236Z,10.33
2018-09-24T03:21:50.766Z,11.10
2018-09-24T03:24:19.228Z,10.20
2018-09-24T03:26:47.703Z,10.63
2018-09-24T03:29:21.043Z,9.73
2018-09-24T03:31:49.529Z,8.50
2018-09-24T03:34:18.836Z,10.17
2018-09-24T03:36:48.064Z,9.73
2018-09-24T03:39:16.597Z,9.30
2018-09-24T03:41:45.427Z,8.23
2018-09-24T03:44:13.885Z,9.77
2018-09-24T03:46:42.650Z,10.07
2018-09-24T03:49:11.390Z,9.90
2018-09-24T03:51:40.107Z,9.70
2018-09-24T03:54:09.573Z,9.17
2018-09-24T03:56:38.037Z,8.43
2018-09-24T03:59:06.949Z,11.00
2018-09-24T04:01:35.387Z,8.90
2018-09-24T04:04:09.110Z,9.30
2018-09-24T04:06:42.845Z,8.30
2018-09-24T04:09:16.638Z,8.20
2018-09-24T04:11:50.425Z,9.50
2018-09-24T04:14:24.262Z,8.87
2018-09-24T04:16:57.822Z,9.50
2018-09-24T04:19:31.745Z,8.03
2018-09-24T04:22:05.386Z,8.23
2018-09-24T04:24:39.068Z,7.40
2018-09-24T04:27:12.781Z,7.40
2018-09-24T04:29:46.419Z,7.47
2018-09-24T04:32:20.361Z,7.47
2018-09-24T04:34:53.964Z,6.80
2018-09-24T04:37:27.700Z,6.87
2018-09-24T04:40:01.308Z,7.20
2018-09-24T04:42:35.097Z,6.23
2018-09-24T04:45:08.991Z,7.00
2018-09-24T04:47:42.654Z,6.90
2018-09-24T04:50:16.390Z,6.70
2018-09-24T04:52:50.143Z,7.30
2018-09-24T04:55:24.590Z,8.10
2018-09-24T04:57:58.378Z,7.30
2018-09-24T05:00:32.033Z,8.20
2018-09-24T05:03:05.815Z,8.50
2018-09-24T05:05:39.593Z,7.00
2018-09-24T05:08:13.418Z,8.13
2018-09-24T05:10:47.180Z,8.07
2018-09-24T05:13:20.885Z,7.30
2018-09-24T05:15:54.661Z,7.90
2018-09-24T05:18:28.475Z,8.17
2018-09-24T05:21:02.426Z,7.97
2018-09-24T05:23:36.129Z,8.20
2018-09-24T05:26:10.055Z,9.63
2018-09-24T05:28:44.252Z,9.20
2018-09-24T05:31:18.334Z,9.77
2018-09-24T05:33:52.053Z,9.33
2018-09-24T05:36:25.852Z,9.70
2018-09-24T05:38:59.545Z,9.30
2018-09-24T05:41:33.363Z,9.87
2018-09-24T05:44:07.237Z,8.27
2018-09-24T05:46:42.108Z,12.10
2018-09-24T05:49:24.545Z,9.33
2018-09-24T05:51:58.362Z,8.20
2018-09-24T05:54:32.074Z,10.13
2018-09-24T05:57:05.699Z,8.57
2018-09-24T05:59:39.580Z,9.43
2018-09-24T06:02:13.324Z,7.80
2018-09-24T06:04:47.449Z,8.20
2018-09-24T06:07:21.272Z,9.30
2018-09-24T06:09:55.089Z,8.20
2018-09-24T06:12:28.824Z,7.90
2018-09-24T06:15:02.538Z,7.73
2018-09-24T06:17:36.318Z,7.60
2018-09-24T06:20:10.136Z,8.47
2018-09-24T06:22:43.929Z,7.80
2018-09-24T06:25:17.701Z,6.80
2018-09-24T06:27:51.326Z,7.87
2018-09-24T06:30:25.011Z,6.67
2018-09-24T06:32:58.769Z,7.00
2018-09-24T06:35:32.669Z,6.33
2018-09-24T06:38:06.372Z,6.60
2018-09-24T06:40:40.033Z,7.00
2018-09-24T06:43:13.856Z,6.07
2018-09-24T06:45:47.633Z,6.33
2018-09-24T06:48:21.269Z,8.93
2018-09-24T06:50:55.041Z,6.33
2018-09-24T06:53:28.675Z,6.10
2018-09-24T06:56:02.526Z,7.03
2018-09-24T06:58:36.237Z,7.20
2018-09-24T07:01:10.113Z,6.40
2018-09-24T07:03:43.997Z,5.80
2018-09-24T07:06:17.780Z,6.10
2018-09-24T07:08:51.566Z,6.63
2018-09-24T07:11:25.435Z,5.53
2018-09-24T07:13:59.191Z,6.57
2018-09-24T07:16:32.770Z,5.53
2018-09-24T07:19:06.430Z,5.43
2018-09-24T07:21:40.348Z,6.73
2018-09-24T07:24:14.127Z,5.30
2018-09-24T07:26:47.945Z,5.43
2018-09-24T07:29:21.748Z,6.30
2018-09-24T07:31:55.590Z,5.40
2018-09-24T07:34:29.948Z,6.33
2018-09-24T07:37:03.774Z,6.30
2018-09-24T07:39:37.613Z,4.70
2018-09-24T07:42:11.589Z,4.93
2018-09-24T07:44:45.399Z,5.00
2018-09-24T07:47:19.073Z,4.60
2018-09-24T07:49:52.806Z,4.97
2018-09-24T07:52:26.594Z,5.40
2018-09-24T07:55:00.361Z,4.47
2018-09-24T07:57:34.109Z,4.70
2018-09-24T08:00:07.915Z,3.67
2018-09-24T08:02:41.669Z,3.30
2018-09-24T08:05:15.426Z,4.27
2018-09-24T08:07:49.189Z,4.30
2018-09-24T08:10:23.164Z,3.90
2018-09-24T08:12:57.069Z,2.83
2018-09-24T08:15:30.730Z,4.53
2018-09-24T08:18:04.533Z,3.50
2018-09-24T08:20:38.232Z,4.47
2018-09-24T08:23:12.019Z,3.60
2018-09-24T08:25:45.792Z,3.27
2018-09-24T08:28:19.481Z,2.70
2018-09-24T08:30:53.257Z,2.83
2018-09-24T08:33:27.043Z,3.60
2018-09-24T08:36:00.713Z,2.80
2018-09-24T08:38:34.622Z,2.93
2018-09-24T08:41:08.378Z,4.70
2018-09-24T08:43:42.082Z,3.77
2018-09-24T08:46:15.962Z,3.17
2018-09-24T08:48:49.791Z,3.63
2018-09-24T08:51:23.726Z,3.30
2018-09-24T08:53:57.585Z,3.20
2018-09-24T08:56:31.407Z,3.43
2018-09-24T08:59:05.121Z,2.30
2018-09-24T09:01:38.828Z,2.60
2018-09-24T09:04:12.647Z,2.53
2018-09-24T09:06:46.564Z,2.83
2018-09-24T09:09:20.299Z,2.97
2018-09-24T09:11:54.042Z,3.23
2018-09-24T09:14:27.693Z,2.70
2018-09-24T09:17:01.563Z,3.03
2018-09-24T09:19:41.979Z,3.93
2018-09-24T09:22:15.716Z,2.80
2018-09-24T09:24:49.501Z,3.50
2018-09-24T09:27:23.269Z,3.17
2018-09-24T09:29:57.146Z,4.60
2018-09-24T09:32:31.044Z,3.20
2018-09-24T09:35:04.923Z,2.90
2018-09-24T09:37:38.861Z,3.30
2018-09-24T09:40:12.665Z,3.40
2018-09-24T09:42:46.361Z,3.67
2018-09-24T09:45:20.124Z,4.17
2018-09-24T09:47:54.010Z,3.67
2018-09-24T09:50:27.828Z,4.80
2018-09-24T09:53:01.667Z,3.23
2018-09-24T09:55:35.596Z,3.40
2018-09-24T09:58:09.450Z,3.47
2018-09-24T10:00:43.262Z,3.73
2018-09-24T10:03:16.995Z,3.00
2018-09-24T10:05:50.712Z,4.37
2018-09-24T10:08:24.384Z,3.23
2018-09-24T10:10:58.182Z,2.80
2018-09-24T10:13:32.142Z,3.57
2018-09-24T10:16:05.821Z,2.90
2018-09-24T10:18:39.610Z,2.67
2018-09-24T10:21:13.404Z,2.80
2018-09-24T10:23:47.602Z,3.47
2018-09-24T10:26:21.366Z,2.10
2018-09-24T10:28:54.918Z,1.67
2018-09-24T10:31:28.744Z,2.47
2018-09-24T10:34:02.517Z,2.03
2018-09-24T10:36:36.382Z,1.90
2018-09-24T10:39:13.270Z,2.00
2018-09-24T10:41:47.537Z,2.10
2018-09-24T10:44:21.414Z,3.23
2018-09-24T10:46:55.331Z,2.17
2018-09-24T10:49:29.097Z,1.70
2018-09-24T10:52:02.766Z,2.53
2018-09-24T10:54:36.577Z,2.50
2018-09-24T10:57:10.337Z,1.83
2018-09-24T10:59:44.066Z,1.90
2018-09-24T11:02:17.706Z,4.03
2018-09-24T11:04:51.686Z,3.20
2018-09-24T11:07:25.535Z,1.70
2018-09-24T11:09:59.280Z,2.20
2018-09-24T11:12:33.002Z,1.57
2018-09-24T11:15:06.661Z,1.93
2018-09-24T11:17:40.650Z,2.00
2018-09-24T11:20:14.317Z,1.20
2018-09-24T11:22:48.118Z,1.33
2018-09-24T11:25:21.945Z,1.90
2018-09-24T11:27:55.683Z,1.77
2018-09-24T11:30:29.474Z,3.10
2018-09-24T11:33:03.237Z,1.30
2018-09-24T11:35:36.902Z,1.20
2018-09-24T11:38:10.989Z,1.43
2018-09-24T11:40:44.877Z,1.07
2018-09-24T11:43:18.790Z,1.70
2018-09-24T11:45:52.580Z,1.77
2018-09-24T11:48:26.398Z,1.20
2018-09-24T11:51:00.137Z,1.23
2018-09-24T11:53:33.752Z,0.90
2018-09-24T11:56:07.603Z,1.30
2018-09-24T11:58:41.484Z,1.70
2018-09-24T12:01:15.252Z,1.27
2018-09-24T12:03:48.841Z,1.60
2018-09-24T12:06:22.746Z,1.10
2018-09-24T12:08:56.816Z,1.40
2018-09-24T12:11:30.746Z,1.70
2018-09-24T12:14:04.614Z,1.63
2018-09-24T12:16:38.372Z,1.20
2018-09-24T12:19:12.117Z,1.00
2018-09-24T12:21:45.865Z,1.70
2018-09-24T12:24:19.687Z,2.17
2018-09-24T12:26:53.681Z,2.07
2018-09-24T12:29:27.341Z,2.40
2018-09-24T12:32:01.147Z,2.27
2018-09-24T12:34:34.832Z,2.20
2018-09-24T12:37:08.634Z,2.03
2018-09-24T12:39:42.328Z,2.40
2018-09-24T12:42:16.208Z,2.07
2018-09-24T12:44:50.021Z,2.27
2018-09-24T12:47:23.825Z,1.90
2018-09-24T12:49:57.600Z,1.80
2018-09-24T12:52:31.470Z,1.50
2018-09-24T12:55:05.232Z,1.70
2018-09-24T12:57:39.052Z,1.20
2018-09-24T13:00:12.886Z,1.03
2018-09-24T13:02:46.753Z,1.30
2018-09-24T13:05:20.582Z,1.57
2018-09-24T13:07:54.296Z,1.40
2018-09-24T13:10:28.013Z,1.70
2018-09-24T13:13:02.036Z,2.10
2018-09-24T13:15:35.857Z,1.47
2018-09-24T13:18:09.655Z,1.67
2018-09-24T13:20:43.424Z,1.53
2018-09-24T13:23:17.230Z,1.13
2018-09-24T13:25:51.047Z,1.10
2018-09-24T13:28:24.853Z,1.10
2018-09-24T13:30:58.853Z,1.10
2018-09-24T13:33:33.033Z,0.73
2018-09-24T13:36:06.790Z,1.00
2018-09-24T13:38:40.673Z,1.00
2018-09-24T13:41:14.479Z,1.00
2018-09-24T13:43:48.427Z,1.10
2018-09-24T13:46:22.283Z,1.20
2018-09-24T13:48:56.205Z,0.83
2018-09-24T13:51:29.809Z,2.33
2018-09-24T13:54:03.784Z,0.90
2018-09-24T13:56:37.757Z,1.10
2018-09-24T13:59:12.032Z,1.60
2018-09-24T14:01:45.762Z,1.20
2018-09-24T14:04:19.570Z,0.90
2018-09-24T14:06:53.306Z,1.53
2018-09-24T14:09:27.299Z,2.37
2018-09-24T14:12:01.147Z,1.43
2018-09-24T14:14:35.153Z,1.20
2018-09-24T14:17:08.932Z,1.10
2018-09-24T14:19:42.746Z,1.17
2018-09-24T14:22:16.640Z,1.20
2018-09-24T14:24:51.336Z,1.53
2018-09-24T14:27:25.240Z,1.37
2018-09-24T14:29:59.065Z,1.50
2018-09-24T14:32:33.144Z,1.03
2018-09-24T14:35:07.417Z,1.20
2018-09-24T14:37:41.209Z,1.03
2018-09-24T14:40:15.249Z,1.17
2018-09-24T14:42:49.084Z,1.57
2018-09-24T14:45:22.940Z,1.70
2018-09-24T14:47:56.688Z,1.73
2018-09-24T14:50:30.456Z,1.90
2018-09-24T14:53:04.410Z,2.53
2018-09-24T14:55:38.178Z,2.20
2018-09-24T14:58:12.451Z,1.80
2018-09-24T15:00:47.101Z,2.13
2018-09-24T15:03:20.986Z,2.67
2018-09-24T15:05:54.674Z,2.37
2018-09-24T15:08:28.276Z,2.40
2018-09-24T15:11:02.038Z,2.70
2018-09-24T15:13:35.790Z,2.77
2018-09-24T15:16:09.533Z,2.43
2018-09-24T15:18:43.471Z,1.90
2018-09-24T15:21:18.656Z,2.80
2018-09-24T15:23:52.341Z,1.90
2018-09-24T15:26:25.949Z,1.80
2018-09-24T15:28:59.731Z,1.80
2018-09-24T15:31:33.493Z,1.80
2018-09-24T15:34:07.401Z,1.80
2018-09-24T15:36:41.193Z,2.77
2018-09-24T15:39:14.994Z,2.20
2018-09-24T15:41:48.588Z,2.87
2018-09-24T15:44:22.268Z,2.30
2018-09-24T15:46:56.281Z,3.20
2018-09-24T15:49:30.179Z,2.60
2018-09-24T15:52:04.103Z,2.60
2018-09-24T15:54:38.117Z,2.60
2018-09-24T15:57:12.016Z,3.03
2018-09-24T15:59:48.364Z,2.63
2018-09-24T16:02:22.673Z,2.40
2018-09-24T16:04:56.516Z,2.17
2018-09-24T16:07:30.136Z,2.57
2018-09-24T16:10:04.066Z,2.40
2018-09-24T16:12:37.972Z,2.03
2018-09-24T16:15:12.368Z,2.10
2018-09-24T16:17:46.046Z,3.87
2018-09-24T16:20:19.754Z,2.27
2018-09-24T16:22:53.596Z,2.53
2018-09-24T16:25:27.516Z,2.60
2018-09-24T16:28:01.929Z,2.17
2018-09-24T16:30:35.690Z,2.10
2018-09-24T16:33:10.081Z,2.40
2018-09-24T16:35:43.782Z,1.93
2018-09-24T16:38:17.608Z,1.90
